createdAt,value
2022-08-26T00:02:00.855Z,74.87
2022-08-26T00:04:32.272Z,74.57
2022-08-26T00:07:00.758Z,75.31
2022-08-26T00:09:29.780Z,75.86
2022-08-26T00:12:03.255Z,75.90
2022-08-26T00:14:32.424Z,75.64
2022-08-26T00:16:59.687Z,74.96
2022-08-26T00:19:30.677Z,75.04
2022-08-26T00:22:00.349Z,75.03
2022-08-26T00:24:28.185Z,75.45
2022-08-26T00:26:57.792Z,75.19
2022-08-26T00:29:28.057Z,75.78
2022-08-26T00:32:09.219Z,76.15
2022-08-26T00:34:42.168Z,76.28
2022-08-26T00:37:15.678Z,76.67
2022-08-26T00:39:43.441Z,76.92
2022-08-26T00:42:13.952Z,77.15
2022-08-26T00:44:42.231Z,78.01
2022-08-26T00:47:31.774Z,77.66
2022-08-26T00:50:02.677Z,78.43
2022-08-26T00:52:30.378Z,78.38
2022-08-26T00:55:27.516Z,78.71
2022-08-26T00:58:07.244Z,79.14
2022-08-26T01:00:43.205Z,79.25
2022-08-26T01:03:13.448Z,79.13
2022-08-26T01:05:42.680Z,79.31
2022-08-26T01:08:10.243Z,79.08
2022-08-26T01:10:38.679Z,78.99
2022-08-26T01:13:10.455Z,78.54
2022-08-26T01:15:44.070Z,78.81
2022-08-26T01:18:13.573Z,78.59
2022-08-26T01:21:08.797Z,78.60
2022-08-26T01:23:45.033Z,78.11
2022-08-26T01:26:22.838Z,78.11
2022-08-26T01:28:58.994Z,78.09
2022-08-26T01:31:35.120Z,78.27
2022-08-26T01:34:11.240Z,78.33
2022-08-26T01:36:40.397Z,78.29
2022-08-26T01:39:11.833Z,77.93
2022-08-26T01:41:44.018Z,78.48
2022-08-26T01:44:18.731Z,78.69
2022-08-26T01:46:51.478Z,78.29
2022-08-26T01:49:21.149Z,78.36
2022-08-26T01:51:56.500Z,77.99
2022-08-26T01:54:26.249Z,78.26
2022-08-26T01:56:56.949Z,78.18
2022-08-26T01:59:25.549Z,78.45
2022-08-26T02:01:53.840Z,78.64
2022-08-26T02:04:34.164Z,79.03
2022-08-26T02:07:22.132Z,78.99
2022-08-26T02:09:54.110Z,78.78
2022-08-26T02:12:23.229Z,78.45
2022-08-26T02:14:56.704Z,78.04
2022-08-26T02:17:36.675Z,78.04
2022-08-26T02:20:07.870Z,78.47
2022-08-26T02:22:41.713Z,78.66
2022-08-26T02:25:23.225Z,79.02
2022-08-26T02:27:51.946Z,79.09
2022-08-26T02:30:23.956Z,79.17
2022-08-26T02:33:00.201Z,79.51
2022-08-26T02:35:27.361Z,79.62
2022-08-26T02:37:57.340Z,79.58
2022-08-26T02:40:33.735Z,80.04
2022-08-26T02:43:08.586Z,79.99
2022-08-26T02:45:37.376Z,80.48
2022-08-26T02:48:14.783Z,81.35
2022-08-26T02:50:42.449Z,81.07
2022-08-26T02:53:14.799Z,80.54
2022-08-26T02:55:42.557Z,80.49
2022-08-26T02:58:12.190Z,80.77
2022-08-26T03:00:52.791Z,80.41
2022-08-26T03:03:23.843Z,79.89
2022-08-26T03:05:52.029Z,79.73
2022-08-26T03:08:21.195Z,79.70
2022-08-26T03:10:51.415Z,80.06
2022-08-26T03:13:21.050Z,80.08
2022-08-26T03:15:50.932Z,79.69
2022-08-26T03:18:21.649Z,80.85
2022-08-26T03:20:48.845Z,81.40
2022-08-26T03:23:15.847Z,80.65
2022-08-26T03:25:51.069Z,80.62
2022-08-26T03:28:19.389Z,80.24
2022-08-26T03:30:48.618Z,80.33
2022-08-26T03:33:16.496Z,80.50
2022-08-26T03:35:50.805Z,80.19
2022-08-26T03:38:27.527Z,80.24
2022-08-26T03:40:58.555Z,80.55
2022-08-26T03:43:27.761Z,80.18
2022-08-26T03:45:57.331Z,80.40
2022-08-26T03:48:26.969Z,80.08
2022-08-26T03:50:55.230Z,79.77
2022-08-26T03:53:24.097Z,80.06
2022-08-26T03:55:52.118Z,80.03
2022-08-26T03:58:21.407Z,79.90
2022-08-26T04:00:55.402Z,80.13
2022-08-26T04:03:44.191Z,79.96
2022-08-26T04:06:12.028Z,80.02
2022-08-26T04:08:41.950Z,80.01
2022-08-26T04:11:38.770Z,79.87
2022-08-26T04:14:11.559Z,79.60
2022-08-26T04:16:42.035Z,80.17
2022-08-26T04:19:13.281Z,80.37
2022-08-26T04:21:42.775Z,80.52
2022-08-26T04:24:13.060Z,80.33
2022-08-26T04:26:43.846Z,80.51
2022-08-26T04:29:20.702Z,80.05
2022-08-26T04:31:50.435Z,80.42
2022-08-26T04:34:33.496Z,80.99
2022-08-26T04:37:02.930Z,80.99
2022-08-26T04:39:33.469Z,81.31
2022-08-26T04:42:02.128Z,80.60
2022-08-26T04:44:30.590Z,81.17
2022-08-26T04:47:00.938Z,81.44
2022-08-26T04:49:35.415Z,81.20
2022-08-26T04:52:07.780Z,80.91
2022-08-26T04:54:37.389Z,82.16
2022-08-26T04:57:05.162Z,82.12
2022-08-26T04:59:38.459Z,81.94
2022-08-26T05:02:10.337Z,81.14
2022-08-26T05:04:41.058Z,81.34
2022-08-26T05:07:11.400Z,81.08
2022-08-26T05:09:42.910Z,81.00
2022-08-26T05:12:13.258Z,80.30
2022-08-26T05:14:42.907Z,80.31
2022-08-26T05:17:10.484Z,80.26
2022-08-26T05:19:43.203Z,80.05
2022-08-26T05:22:13.122Z,79.91
2022-08-26T05:24:43.690Z,79.58
2022-08-26T05:27:13.713Z,79.90
2022-08-26T05:29:41.598Z,79.32
2022-08-26T05:32:11.285Z,79.70
2022-08-26T05:34:43.146Z,80.73
2022-08-26T05:37:11.405Z,80.09
2022-08-26T05:39:43.528Z,79.64
2022-08-26T05:42:22.850Z,80.43
2022-08-26T05:44:55.916Z,80.44
2022-08-26T05:47:27.469Z,81.33
2022-08-26T05:49:59.651Z,81.55
2022-08-26T05:52:27.790Z,80.84
2022-08-26T05:54:57.298Z,81.11
2022-08-26T05:57:24.377Z,80.70
2022-08-26T06:02:21.427Z,80.83
2022-08-26T06:04:50.950Z,80.20
2022-08-26T06:07:42.659Z,79.93
2022-08-26T06:10:32.779Z,80.49
2022-08-26T06:13:09.113Z,80.61
2022-08-26T06:15:46.937Z,79.69
2022-08-26T06:18:18.430Z,79.13
2022-08-26T06:20:57.085Z,78.67
2022-08-26T06:23:47.230Z,78.90
2022-08-26T06:26:16.930Z,79.11
2022-08-26T06:28:46.128Z,78.59
2022-08-26T06:31:16.806Z,78.23
2022-08-26T06:33:54.387Z,77.84
2022-08-26T06:36:26.880Z,76.45
2022-08-26T06:38:55.897Z,74.93
2022-08-26T06:41:25.177Z,74.37
2022-08-26T06:43:54.087Z,73.55
2022-08-26T06:46:22.247Z,73.38
2022-08-26T06:48:52.354Z,74.22
2022-08-26T06:51:23.665Z,75.11
2022-08-26T06:53:53.847Z,75.17
2022-08-26T06:56:27.871Z,75.35
2022-08-26T06:58:56.829Z,74.94
2022-08-26T07:01:32.715Z,73.27
2022-08-26T07:04:03.714Z,71.41
2022-08-26T07:06:43.439Z,71.37
2022-08-26T07:09:13.923Z,70.26
2022-08-26T07:11:42.311Z,70.00
2022-08-26T07:14:10.056Z,68.15
2022-08-26T07:16:42.271Z,67.95
2022-08-26T07:19:10.656Z,65.93
2022-08-26T07:21:42.925Z,65.53
2022-08-26T07:24:11.657Z,63.94
2022-08-26T07:26:43.184Z,65.68
2022-08-26T07:29:17.282Z,63.56
2022-08-26T07:31:47.710Z,61.85
2022-08-26T07:34:17.355Z,61.42
2022-08-26T07:36:47.458Z,61.62
2022-08-26T07:39:17.372Z,60.56
2022-08-26T07:41:47.329Z,59.33
2022-08-26T07:44:15.880Z,60.46
2022-08-26T07:46:44.295Z,58.84
2022-08-26T07:49:22.047Z,59.39
2022-08-26T07:51:53.156Z,59.27
2022-08-26T07:54:26.739Z,58.63
2022-08-26T07:56:57.737Z,59.40
2022-08-26T07:59:27.291Z,57.76
2022-08-26T08:01:57.332Z,57.50
2022-08-26T08:04:27.047Z,58.02
2022-08-26T08:06:56.534Z,57.66
2022-08-26T08:09:26.750Z,56.37
2022-08-26T08:11:56.559Z,58.30
2022-08-26T08:14:23.608Z,56.41
2022-08-26T08:16:54.626Z,55.38
2022-08-26T08:19:28.448Z,54.47
2022-08-26T08:22:06.872Z,54.38
2022-08-26T08:24:49.874Z,53.86
2022-08-26T08:27:24.329Z,50.72
2022-08-26T08:29:57.639Z,51.56
2022-08-26T08:32:36.338Z,51.70
2022-08-26T08:35:11.730Z,51.74
2022-08-26T08:37:44.175Z,53.03
2022-08-26T08:40:20.716Z,53.91
2022-08-26T08:45:53.111Z,52.68
2022-08-26T08:48:33.082Z,53.29
2022-08-26T08:51:20.589Z,51.80
2022-08-26T08:53:54.764Z,51.29
2022-08-26T08:56:41.648Z,50.18
2022-08-26T08:59:21.665Z,49.13
2022-08-26T09:02:23.055Z,49.07
2022-08-26T09:05:15.360Z,50.25
2022-08-26T09:08:00.764Z,49.75
2022-08-26T09:10:32.447Z,49.72
2022-08-26T09:13:01.082Z,51.66
2022-08-26T09:16:10.899Z,52.64
2022-08-26T09:19:15.523Z,50.93
2022-08-26T09:21:46.761Z,51.31
2022-08-26T09:24:28.951Z,50.36
2022-08-26T09:26:59.458Z,50.37
2022-08-26T09:29:34.499Z,50.10
2022-08-26T09:32:25.982Z,50.02
2022-08-26T09:35:31.881Z,49.83
2022-08-26T09:37:59.711Z,49.83
2022-08-26T09:40:37.332Z,49.30
2022-08-26T09:43:23.638Z,49.51
2022-08-26T09:46:28.794Z,48.18
2022-08-26T09:48:57.085Z,48.01
2022-08-26T09:51:32.611Z,49.90
2022-08-26T09:54:05.636Z,49.11
2022-08-26T09:56:38.140Z,49.38
2022-08-26T09:59:12.872Z,49.44
2022-08-26T10:01:44.757Z,48.82
2022-08-26T10:04:15.933Z,48.94
2022-08-26T10:07:07.015Z,48.55
2022-08-26T10:09:42.660Z,49.42
2022-08-26T10:12:23.115Z,49.89
2022-08-26T10:15:09.590Z,51.07
2022-08-26T10:17:42.638Z,50.60
2022-08-26T10:20:33.731Z,48.39
2022-08-26T10:23:21.693Z,49.37
2022-08-26T10:26:03.650Z,48.18
2022-08-26T10:29:06.450Z,50.41
2022-08-26T10:31:43.703Z,52.12
2022-08-26T10:34:14.040Z,50.35
2022-08-26T10:37:15.934Z,50.30
2022-08-26T10:40:00.212Z,49.88
2022-08-26T10:43:30.852Z,50.19
2022-08-26T10:46:07.673Z,52.74
2022-08-26T10:48:50.321Z,47.28
2022-08-26T10:51:37.736Z,47.53
2022-08-26T10:54:23.753Z,47.64
2022-08-26T10:56:59.321Z,49.14
2022-08-26T10:59:38.041Z,46.17
2022-08-26T11:02:13.413Z,46.19
2022-08-26T11:05:16.331Z,47.66
2022-08-26T11:07:56.360Z,46.25
2022-08-26T11:10:24.421Z,45.85
2022-08-26T11:13:07.826Z,45.47
2022-08-26T11:15:41.530Z,45.38
2022-08-26T11:18:12.520Z,45.61
2022-08-26T11:20:50.705Z,46.59
2022-08-26T11:23:33.600Z,44.01
2022-08-26T11:26:08.702Z,43.85
2022-08-26T11:28:52.300Z,42.52
2022-08-26T11:31:27.061Z,45.22
2022-08-26T11:34:10.991Z,43.14
2022-08-26T11:36:56.889Z,41.91
2022-08-26T11:39:55.464Z,42.41
2022-08-26T11:42:51.992Z,43.60
2022-08-26T11:45:44.420Z,44.62
2022-08-26T11:48:40.695Z,45.06
2022-08-26T11:51:20.602Z,45.65
2022-08-26T11:53:50.909Z,43.04
2022-08-26T11:56:33.269Z,42.20
2022-08-26T11:59:09.918Z,42.06
2022-08-26T12:01:44.027Z,41.13
2022-08-26T12:04:34.401Z,40.06
2022-08-26T12:07:05.026Z,39.75
2022-08-26T12:09:52.704Z,41.10
2022-08-26T12:12:37.716Z,42.25
2022-08-26T12:15:17.002Z,41.56
2022-08-26T12:17:50.486Z,42.70
2022-08-26T12:20:54.199Z,40.49
2022-08-26T12:23:22.535Z,40.09
2022-08-26T12:25:54.681Z,35.79
2022-08-26T12:28:32.745Z,37.43
2022-08-26T12:31:03.020Z,37.60
2022-08-26T12:33:34.229Z,38.27
2022-08-26T12:36:07.042Z,37.63
2022-08-26T12:38:37.668Z,37.17
2022-08-26T12:41:04.841Z,37.52
2022-08-26T12:43:47.462Z,37.75
2022-08-26T12:46:27.166Z,36.76
2022-08-26T12:49:02.422Z,35.35
2022-08-26T12:51:32.240Z,36.39
2022-08-26T12:54:02.259Z,37.44
2022-08-26T12:56:39.820Z,38.03
2022-08-26T12:59:25.446Z,37.12
2022-08-26T13:01:54.647Z,37.56
2022-08-26T13:04:43.381Z,38.13
2022-08-26T13:07:27.357Z,37.90
2022-08-26T13:09:58.168Z,37.06
2022-08-26T13:12:34.680Z,36.83
2022-08-26T13:15:06.300Z,37.28
2022-08-26T13:17:37.860Z,37.14
2022-08-26T13:20:08.385Z,37.45
2022-08-26T13:22:35.607Z,37.04
2022-08-26T13:25:07.977Z,37.16
2022-08-26T13:27:37.570Z,35.88
2022-08-26T13:30:05.098Z,36.49
2022-08-26T13:32:35.419Z,36.80
2022-08-26T13:35:05.721Z,36.40
2022-08-26T13:37:34.893Z,36.62
2022-08-26T13:40:12.457Z,36.25
2022-08-26T13:42:50.101Z,36.64
2022-08-26T13:45:18.724Z,35.53
2022-08-26T13:47:47.246Z,36.61
2022-08-26T13:50:14.986Z,36.41
2022-08-26T13:52:44.043Z,36.41
2022-08-26T13:55:11.251Z,36.49
2022-08-26T13:57:39.106Z,35.62
2022-08-26T14:00:11.125Z,35.27
2022-08-26T14:02:43.317Z,34.88
2022-08-26T14:05:12.925Z,35.55
2022-08-26T14:07:41.078Z,34.60
2022-08-26T14:10:08.571Z,35.37
2022-08-26T14:12:38.122Z,34.36
2022-08-26T14:15:09.131Z,34.48
2022-08-26T14:17:37.777Z,35.74
2022-08-26T14:20:18.626Z,34.60
2022-08-26T14:23:03.437Z,34.91
2022-08-26T14:25:33.846Z,35.43
2022-08-26T14:28:02.013Z,34.53
2022-08-26T14:30:30.991Z,34.21
2022-08-26T14:33:03.639Z,34.35
2022-08-26T14:35:31.921Z,35.38
2022-08-26T14:38:01.412Z,34.95
2022-08-26T14:40:38.912Z,34.72
2022-08-26T14:43:09.661Z,35.32
2022-08-26T14:45:43.752Z,35.72
2022-08-26T14:48:14.476Z,36.31
2022-08-26T14:50:41.587Z,36.74
2022-08-26T14:53:28.089Z,36.36
2022-08-26T14:55:56.441Z,36.97
2022-08-26T14:58:23.423Z,37.65
2022-08-26T15:00:52.027Z,36.59
2022-08-26T15:05:52.697Z,37.36
2022-08-26T15:08:23.188Z,37.74
2022-08-26T15:10:51.858Z,38.34
2022-08-26T15:13:23.947Z,37.80
2022-08-26T15:16:00.978Z,37.01
2022-08-26T15:18:40.622Z,36.64
2022-08-26T15:21:17.997Z,36.83
2022-08-26T15:23:48.122Z,37.46
2022-08-26T15:26:17.146Z,37.93
2022-08-26T15:28:56.661Z,38.18
2022-08-26T15:31:32.827Z,38.43
2022-08-26T15:34:03.259Z,39.26
2022-08-26T15:36:34.061Z,39.31
2022-08-26T15:39:02.573Z,38.69
2022-08-26T15:41:30.146Z,38.27
2022-08-26T15:44:07.246Z,37.50
2022-08-26T15:46:38.506Z,38.93
2022-08-26T15:49:07.449Z,39.22
2022-08-26T15:51:45.172Z,39.53
2022-08-26T15:54:17.170Z,39.63
2022-08-26T15:56:47.958Z,38.92
2022-08-26T15:59:18.125Z,39.08
2022-08-26T16:01:55.619Z,39.07
2022-08-26T16:04:24.166Z,39.76
2022-08-26T16:06:53.319Z,39.90
2022-08-26T16:09:27.821Z,40.10
2022-08-26T16:11:57.162Z,39.91
2022-08-26T16:14:27.830Z,40.59
2022-08-26T16:16:56.757Z,41.46
2022-08-26T16:19:27.258Z,41.15
2022-08-26T16:21:55.665Z,41.04
2022-08-26T16:24:28.368Z,41.13
2022-08-26T16:27:00.119Z,41.36
2022-08-26T16:29:28.728Z,41.77
2022-08-26T16:31:56.715Z,42.42
2022-08-26T16:34:28.121Z,42.75
2022-08-26T16:36:56.133Z,42.92
2022-08-26T16:39:23.559Z,42.36
2022-08-26T16:41:53.245Z,42.83
2022-08-26T16:44:22.400Z,43.13
2022-08-26T16:46:49.783Z,43.15
2022-08-26T16:49:20.745Z,43.19
2022-08-26T16:51:47.725Z,43.00
2022-08-26T16:54:17.673Z,43.45
2022-08-26T16:56:45.955Z,43.65
2022-08-26T16:59:13.684Z,43.37
2022-08-26T17:01:44.839Z,43.08
2022-08-26T17:04:12.849Z,43.38
2022-08-26T17:06:44.462Z,43.22
2022-08-26T17:09:11.836Z,43.92
2022-08-26T17:11:43.178Z,43.79
2022-08-26T17:14:11.679Z,44.10
2022-08-26T17:16:41.687Z,44.22
2022-08-26T17:19:13.172Z,44.63
2022-08-26T17:21:43.316Z,44.64
2022-08-26T17:24:11.677Z,44.74
2022-08-26T17:26:48.368Z,44.51
2022-08-26T17:29:23.750Z,45.49
2022-08-26T17:31:53.557Z,45.34
2022-08-26T17:34:22.745Z,45.53
2022-08-26T17:36:52.359Z,45.57
2022-08-26T17:39:29.918Z,45.87
2022-08-26T17:41:59.002Z,46.15
2022-08-26T17:44:26.892Z,46.60
2022-08-26T17:46:58.121Z,46.67
2022-08-26T17:49:28.259Z,47.32
2022-08-26T17:51:58.953Z,48.00
2022-08-26T17:54:27.699Z,47.66
2022-08-26T17:56:57.843Z,48.37
2022-08-26T17:59:33.587Z,48.66
2022-08-26T18:02:03.451Z,48.37
2022-08-26T18:04:33.872Z,48.77
2022-08-26T18:07:02.451Z,49.01
2022-08-26T18:09:32.626Z,48.95
2022-08-26T18:12:03.161Z,49.20
2022-08-26T18:14:33.350Z,49.95
2022-08-26T18:17:03.531Z,49.75
2022-08-26T18:19:32.755Z,50.56
2022-08-26T18:22:02.352Z,50.36
2022-08-26T18:24:33.000Z,51.13
2022-08-26T18:27:02.817Z,50.96
2022-08-26T18:29:34.358Z,51.80
2022-08-26T18:32:03.478Z,51.94
2022-08-26T18:34:31.531Z,52.52
2022-08-26T18:37:00.802Z,52.92
2022-08-26T18:39:30.844Z,53.05
2022-08-26T18:42:01.784Z,53.53
2022-08-26T18:44:33.329Z,53.90
2022-08-26T18:47:02.000Z,54.02
2022-08-26T18:49:33.728Z,54.65
2022-08-26T18:52:02.661Z,54.80
2022-08-26T18:54:32.777Z,54.63
2022-08-26T18:57:02.989Z,55.17
2022-08-26T18:59:33.001Z,55.18
2022-08-26T19:02:03.239Z,55.80
2022-08-26T19:04:35.543Z,56.20
2022-08-26T19:07:14.021Z,56.86
2022-08-26T19:09:47.931Z,57.43
2022-08-26T19:12:26.865Z,57.63
2022-08-26T19:14:57.536Z,57.86
2022-08-26T19:17:27.051Z,58.36
2022-08-26T19:19:57.577Z,57.73
2022-08-26T19:22:29.951Z,58.62
2022-08-26T19:25:02.023Z,58.67
2022-08-26T19:27:38.536Z,58.92
2022-08-26T19:30:16.429Z,59.21
2022-08-26T19:32:44.841Z,58.99
2022-08-26T19:35:15.008Z,59.44
2022-08-26T19:37:44.613Z,59.07
2022-08-26T19:40:13.592Z,59.29
2022-08-26T19:42:43.290Z,59.88
2022-08-26T19:45:20.199Z,60.17
2022-08-26T19:47:54.571Z,60.77
2022-08-26T19:50:23.220Z,61.41
2022-08-26T19:52:53.312Z,61.29
2022-08-26T19:55:22.849Z,61.81
2022-08-26T19:57:53.014Z,61.82
2022-08-26T20:00:27.571Z,61.80
2022-08-26T20:02:58.652Z,62.33
2022-08-26T20:05:27.301Z,62.18
2022-08-26T20:07:57.841Z,62.44
2022-08-26T20:10:26.521Z,62.17
2022-08-26T20:12:56.542Z,62.12
2022-08-26T20:15:36.540Z,62.96
2022-08-26T20:18:24.942Z,63.33
2022-08-26T20:21:12.548Z,63.61
2022-08-26T20:23:42.781Z,63.61
2022-08-26T20:26:11.307Z,64.27
2022-08-26T20:28:41.872Z,63.80
2022-08-26T20:31:12.504Z,63.73
2022-08-26T20:33:46.557Z,64.03
2022-08-26T20:36:15.722Z,64.19
2022-08-26T20:38:45.323Z,64.61
2022-08-26T20:41:14.152Z,64.89
2022-08-26T20:43:50.592Z,64.67
2022-08-26T20:46:20.305Z,65.41
2022-08-26T20:48:51.951Z,65.37
2022-08-26T20:51:21.846Z,65.70
2022-08-26T20:53:51.500Z,65.58
2022-08-26T20:56:27.601Z,66.26
2022-08-26T20:58:59.051Z,66.85
2022-08-26T21:01:30.880Z,66.21
2022-08-26T21:04:01.567Z,66.32
2022-08-26T21:06:31.543Z,66.30
2022-08-26T21:09:01.599Z,66.77
2022-08-26T21:11:31.608Z,66.88
2022-08-26T21:14:07.135Z,67.45
2022-08-26T21:16:45.749Z,67.29
2022-08-26T21:19:18.075Z,67.03
2022-08-26T21:21:48.639Z,66.70
2022-08-26T21:24:18.695Z,67.51
2022-08-26T21:26:48.152Z,68.03
2022-08-26T21:29:17.355Z,68.39
2022-08-26T21:31:48.382Z,68.43
2022-08-26T21:34:21.255Z,68.60
2022-08-26T21:36:53.099Z,68.99
2022-08-26T21:39:21.524Z,68.73
2022-08-26T21:41:50.042Z,68.58
2022-08-26T21:44:21.617Z,68.58
2022-08-26T21:46:51.487Z,68.42
2022-08-26T21:49:20.405Z,68.54
2022-08-26T21:51:48.931Z,68.59
2022-08-26T21:54:18.235Z,68.39
2022-08-26T21:56:47.826Z,68.75
2022-08-26T21:59:21.701Z,69.76
2022-08-26T22:01:52.137Z,69.84
2022-08-26T22:04:23.151Z,70.16
2022-08-26T22:06:56.474Z,70.34
2022-08-26T22:09:27.376Z,70.59
2022-08-26T22:11:57.647Z,70.84
2022-08-26T22:14:30.487Z,70.48
2022-08-26T22:17:02.148Z,70.78
2022-08-26T22:19:32.659Z,70.85
2022-08-26T22:22:03.348Z,70.89
2022-08-26T22:24:33.280Z,70.71
2022-08-26T22:27:03.485Z,70.32
2022-08-26T22:29:32.668Z,70.17
2022-08-26T22:32:02.220Z,70.13
2022-08-26T22:34:31.741Z,70.34
2022-08-26T22:37:02.109Z,71.15
2022-08-26T22:39:34.280Z,71.51
2022-08-26T22:42:03.896Z,71.08
2022-08-26T22:44:32.710Z,71.31
2022-08-26T22:47:01.845Z,72.04
2022-08-26T22:49:31.247Z,72.35
2022-08-26T22:52:02.049Z,72.85
2022-08-26T22:54:29.165Z,72.80
2022-08-26T22:56:56.245Z,72.39
2022-08-26T22:59:24.728Z,72.14
2022-08-26T23:01:51.908Z,71.72
2022-08-26T23:04:21.723Z,72.11
2022-08-26T23:06:53.333Z,72.94
2022-08-26T23:09:21.765Z,72.73
2022-08-26T23:11:53.565Z,73.10
2022-08-26T23:14:20.700Z,73.14
2022-08-26T23:16:50.426Z,73.11
2022-08-26T23:19:22.131Z,73.04
2022-08-26T23:21:51.775Z,73.03
2022-08-26T23:24:19.494Z,72.98
2022-08-26T23:26:50.501Z,73.15
2022-08-26T23:29:22.268Z,73.43
2022-08-26T23:31:50.681Z,73.41
2022-08-26T23:34:40.694Z,73.54
2022-08-26T23:37:14.532Z,73.56
2022-08-26T23:39:44.371Z,73.99
2022-08-26T23:42:13.820Z,74.26
2022-08-26T23:44:42.695Z,74.44
2022-08-26T23:47:13.616Z,74.06
2022-08-26T23:49:44.561Z,74.42
2022-08-26T23:52:32.029Z,74.48
2022-08-26T23:54:59.578Z,74.10
2022-08-26T23:57:27.803Z,73.73
2022-08-26T23:59:57.323Z,73.60
